Hamilton Island, Queensland

7:24 AM AEST on August 25, 2016 (GMT +1000)
Hamilton Island | | Change Station

Elev 16 ft 20.36 °S, 148.95 °E | Updated 24 minutes ago

Mostly Cloudy
Mostly Cloudy
68 °F
Feels Like 68 °F
N
13
Wind Variable Wind from ESE

Today
High -- | Low -- °F
--% Chance of Precip.
Yesterday
High -- | Low -- °F
Precip. -- in
Pressure 29.92 in
Visibility 6.2 miles
Clouds Mostly Cloudy 5300 ft
Dew Point 64 °F
Humidity 88%
Rainfall 0.00 in
Snow Depth Not available.
6:18 AM 5:53 PM
Waning Gibbous, 53% visible
METAR YBHM 242100Z AUTO 12011KT 9999 // BKN053 20/18 Q1013
Pressure 29.92 in
Visibility 6.2 miles
Clouds Mostly Cloudy 5300 ft
Dew Point 64 °F
Humidity 88%
Rainfall 0.00 in
Snow Depth Not available.
6:18 AM 5:53 PM
Waning Gibbous, 53% visible
METAR YBHM 242100Z AUTO 12011KT 9999 // BKN053 20/18 Q1013

10-Day Weather Forecast

Almanac

Astronomy

Aug. 25, 2016 Rise Set
Actual Time
Civil Twilight
Nautical Twilight
Astronomical Twilight
Moon
Length of Visible Light
Length of Day
Tomorrow will be .
, % of the Moon is Illuminated

Today's Extremes

Country Highs Country Lows

Community

WunderPhotos

Upload Photos

1,934,719 photos uploaded!

WunderBlog® & News

Nearby

Air Quality

  Air Quality AQ Index Pollutant
Not available.

Snow Depth

Station Depth Elevation

Earthquake Activity

City Distance Mag. Time & Date
Minimum magnitude displayed is 2.5.

Coastal Water Temperatures

Place Temperature

Stations

Nearby Weather Stations

Station Location Temp. Windchill Dew Point Humidity Wind Precip. Elev Updated Type